sensor_id;sensor_type;location;lat;lon;timestamp;pressure;altitude;pressure_sealevel;temperature;humidity
23118;BME280;11728;50.624;6.014;2022-10-23T00:01:37;98132.09;;;15.17;95.86
23118;BME280;11728;50.624;6.014;2022-10-23T00:06:59;98128.13;;;15.27;96.08
23118;BME280;11728;50.624;6.014;2022-10-23T00:12:20;98125.97;;;15.35;96.01
23118;BME280;11728;50.624;6.014;2022-10-23T00:17:40;98127.97;;;15.50;96.34
23118;BME280;11728;50.624;6.014;2022-10-23T00:23:01;98125.50;;;15.65;96.75
23118;BME280;11728;50.624;6.014;2022-10-23T00:28:22;98116.88;;;15.79;97.12
23118;BME280;11728;50.624;6.014;2022-10-23T00:33:44;98112.56;;;15.95;98.12
23118;BME280;11728;50.624;6.014;2022-10-23T00:39:04;98114.72;;;16.05;97.97
23118;BME280;11728;50.624;6.014;2022-10-23T00:49:49;98114.41;;;16.11;98.07
23118;BME280;11728;50.624;6.014;2022-10-23T00:55:10;98111.72;;;16.13;98.23
23118;BME280;11728;50.624;6.014;2022-10-23T01:00:51;98104.50;;;16.15;98.08
23118;BME280;11728;50.624;6.014;2022-10-23T01:12:09;98090.50;;;16.28;97.06
23118;BME280;11728;50.624;6.014;2022-10-23T01:17:38;98084.91;;;16.34;96.27
23118;BME280;11728;50.624;6.014;2022-10-23T01:28:35;98075.66;;;16.41;95.15
23118;BME280;11728;50.624;6.014;2022-10-23T01:34:06;98065.81;;;16.43;94.27
23118;BME280;11728;50.624;6.014;2022-10-23T01:39:38;98065.81;;;16.43;93.91
23118;BME280;11728;50.624;6.014;2022-10-23T01:45:05;98051.69;;;16.41;93.49
23118;BME280;11728;50.624;6.014;2022-10-23T01:50:35;98061.72;;;16.36;93.20
23118;BME280;11728;50.624;6.014;2022-10-23T01:56:00;98056.91;;;16.07;94.22
23118;BME280;11728;50.624;6.014;2022-10-23T02:01:25;98063.56;;;15.80;95.50
23118;BME280;11728;50.624;6.014;2022-10-23T02:06:47;98044.91;;;15.62;96.33
23118;BME280;11728;50.624;6.014;2022-10-23T02:12:12;98049.13;;;15.47;97.29
23118;BME280;11728;50.624;6.014;2022-10-23T02:23:24;98030.16;;;15.37;98.05
23118;BME280;11728;50.624;6.014;2022-10-23T02:28:54;98012.44;;;15.36;98.10
23118;BME280;11728;50.624;6.014;2022-10-23T02:34:17;98014.44;;;15.31;98.51
23118;BME280;11728;50.624;6.014;2022-10-23T02:39:39;98021.88;;;15.23;98.92
23118;BME280;11728;50.624;6.014;2022-10-23T02:45:08;97998.28;;;15.15;99.45
23118;BME280;11728;50.624;6.014;2022-10-23T02:56:21;97977.22;;;15.11;99.69
23118;BME280;11728;50.624;6.014;2022-10-23T03:01:52;97971.88;;;15.11;99.92
23118;BME280;11728;50.624;6.014;2022-10-23T03:07:17;97967.44;;;15.11;100.00
23118;BME280;11728;50.624;6.014;2022-10-23T03:12:39;97956.66;;;15.14;99.70
23118;BME280;11728;50.624;6.014;2022-10-23T03:18:00;97958.59;;;15.11;99.79
23118;BME280;11728;50.624;6.014;2022-10-23T03:23:21;97942.63;;;15.11;99.56
23118;BME280;11728;50.624;6.014;2022-10-23T03:28:42;97944.97;;;15.18;99.75
23118;BME280;11728;50.624;6.014;2022-10-23T03:34:03;97936.72;;;15.24;99.26
23118;BME280;11728;50.624;6.014;2022-10-23T03:39:29;97922.75;;;15.38;98.58
23118;BME280;11728;50.624;6.014;2022-10-23T03:44:50;97926.19;;;15.58;97.69
23118;BME280;11728;50.624;6.014;2022-10-23T03:50:13;97923.84;;;15.87;96.22
23118;BME280;11728;50.624;6.014;2022-10-23T03:55:34;97906.31;;;16.17;94.21
23118;BME280;11728;50.624;6.014;2022-10-23T04:00:55;97901.97;;;16.33;92.50
23118;BME280;11728;50.624;6.014;2022-10-23T04:06:16;97896.56;;;16.51;90.76
23118;BME280;11728;50.624;6.014;2022-10-23T04:11:37;97897.94;;;16.58;89.68
23118;BME280;11728;50.624;6.014;2022-10-23T04:16:58;97884.53;;;16.60;88.80
23118;BME280;11728;50.624;6.014;2022-10-23T04:22:21;97874.78;;;16.76;86.72
23118;BME280;11728;50.624;6.014;2022-10-23T04:27:42;97869.44;;;16.76;85.80
23118;BME280;11728;50.624;6.014;2022-10-23T04:33:02;97861.44;;;16.76;84.85
23118;BME280;11728;50.624;6.014;2022-10-23T04:38:23;97863.78;;;16.82;83.95
23118;BME280;11728;50.624;6.014;2022-10-23T04:43:45;97869.09;;;16.82;83.29
23118;BME280;11728;50.624;6.014;2022-10-23T04:49:08;97858.09;;;16.88;82.53
23118;BME280;11728;50.624;6.014;2022-10-23T04:54:44;97854.97;;;16.80;82.40
23118;BME280;11728;50.624;6.014;2022-10-23T05:00:25;97854.97;;;16.80;81.50
23118;BME280;11728;50.624;6.014;2022-10-23T05:05:51;97847.78;;;16.82;80.84
23118;BME280;11728;50.624;6.014;2022-10-23T05:11:44;97846.38;;;16.75;81.07
23118;BME280;11728;50.624;6.014;2022-10-23T05:17:17;97841.75;;;16.78;80.35
23118;BME280;11728;50.624;6.014;2022-10-23T05:22:40;97843.31;;;16.97;78.44
23118;BME280;11728;50.624;6.014;2022-10-23T05:28:04;97832.31;;;17.03;77.36
23118;BME280;11728;50.624;6.014;2022-10-23T05:33:26;97822.06;;;17.11;76.29
23118;BME280;11728;50.624;6.014;2022-10-23T05:38:47;97818.63;;;17.09;76.72
23118;BME280;11728;50.624;6.014;2022-10-23T05:44:11;97809.78;;;17.09;76.29
23118;BME280;11728;50.624;6.014;2022-10-23T05:50:01;97810.63;;;17.09;75.93
23118;BME280;11728;50.624;6.014;2022-10-23T05:55:40;97810.09;;;17.18;75.42
23118;BME280;11728;50.624;6.014;2022-10-23T06:01:13;97800.38;;;17.17;75.75
23118;BME280;11728;50.624;6.014;2022-10-23T06:06:52;97799.44;;;17.18;75.86
23118;BME280;11728;50.624;6.014;2022-10-23T06:12:13;97797.81;;;17.16;76.40
23118;BME280;11728;50.624;6.014;2022-10-23T06:17:38;97791.84;;;17.11;76.96
23118;BME280;11728;50.624;6.014;2022-10-23T06:22:59;97784.13;;;17.06;77.40
23118;BME280;11728;50.624;6.014;2022-10-23T06:28:40;97765.75;;;17.00;77.92
23118;BME280;11728;50.624;6.014;2022-10-23T06:34:02;97753.78;;;17.07;77.43
23118;BME280;11728;50.624;6.014;2022-10-23T06:39:24;97761.66;;;17.10;77.54
23118;BME280;11728;50.624;6.014;2022-10-23T06:44:56;97780.31;;;17.10;77.25
23118;BME280;11728;50.624;6.014;2022-10-23T06:50:40;97771.38;;;17.11;77.30
23118;BME280;11728;50.624;6.014;2022-10-23T06:56:07;97772.59;;;17.21;76.91
23118;BME280;11728;50.624;6.014;2022-10-23T07:01:30;97772.59;;;17.37;76.13
23118;BME280;11728;50.624;6.014;2022-10-23T07:06:54;97769.75;;;17.69;75.11
23118;BME280;11728;50.624;6.014;2022-10-23T07:12:19;97772.09;;;17.89;73.65
23118;BME280;11728;50.624;6.014;2022-10-23T07:17:45;97751.50;;;18.20;73.29
23118;BME280;11728;50.624;6.014;2022-10-23T07:23:08;97760.75;;;18.56;70.93
23118;BME280;11728;50.624;6.014;2022-10-23T07:28:33;97765.31;;;18.54;70.18
23118;BME280;11728;50.624;6.014;2022-10-23T07:33:54;97759.53;;;18.19;71.35
23118;BME280;11728;50.624;6.014;2022-10-23T07:39:15;97759.44;;;18.06;72.03
23118;BME280;11728;50.624;6.014;2022-10-23T07:44:43;97767.16;;;18.11;72.40
23118;BME280;11728;50.624;6.014;2022-10-23T07:50:04;97757.81;;;18.18;72.80
23118;BME280;11728;50.624;6.014;2022-10-23T07:55:25;97771.63;;;18.40;73.12
23118;BME280;11728;50.624;6.014;2022-10-23T08:01:01;97764.06;;;18.74;72.08
23118;BME280;11728;50.624;6.014;2022-10-23T08:06:29;97744.75;;;19.37;71.03
23118;BME280;11728;50.624;6.014;2022-10-23T08:11:52;97720.81;;;20.11;67.38
23118;BME280;11728;50.624;6.014;2022-10-23T08:17:15;97717.94;;;20.27;66.23
23118;BME280;11728;50.624;6.014;2022-10-23T08:22:56;97715.59;;;20.22;65.55
23118;BME280;11728;50.624;6.014;2022-10-23T08:28:19;97700.19;;;20.62;64.62
23118;BME280;11728;50.624;6.014;2022-10-23T08:33:47;97683.53;;;21.41;62.35
23118;BME280;11728;50.624;6.014;2022-10-23T08:39:09;97680.91;;;22.42;59.67
23118;BME280;11728;50.624;6.014;2022-10-23T08:45:15;97658.13;;;22.79;57.90
23118;BME280;11728;50.624;6.014;2022-10-23T08:50:48;97652.94;;;22.98;56.01
23118;BME280;11728;50.624;6.014;2022-10-23T08:56:26;97640.06;;;22.37;55.78
23118;BME280;11728;50.624;6.014;2022-10-23T09:01:59;97628.97;;;21.28;59.01
23118;BME280;11728;50.624;6.014;2022-10-23T09:07:39;97643.41;;;20.55;61.79
23118;BME280;11728;50.624;6.014;2022-10-23T09:13:35;97646.72;;;20.10;63.65
23118;BME280;11728;50.624;6.014;2022-10-23T09:18:59;97655.69;;;19.85;64.70
23118;BME280;11728;50.624;6.014;2022-10-23T09:24:23;97649.47;;;19.72;65.40
23118;BME280;11728;50.624;6.014;2022-10-23T09:29:49;97626.84;;;19.76;65.13
23118;BME280;11728;50.624;6.014;2022-10-23T09:35:20;97610.88;;;19.62;66.19
23118;BME280;11728;50.624;6.014;2022-10-23T09:40:42;97593.94;;;19.49;66.31
23118;BME280;11728;50.624;6.014;2022-10-23T09:46:05;97608.63;;;19.56;65.56
23118;BME280;11728;50.624;6.014;2022-10-23T09:51:27;97589.00;;;19.55;66.19
23118;BME280;11728;50.624;6.014;2022-10-23T09:56:49;97582.47;;;19.47;66.96
23118;BME280;11728;50.624;6.014;2022-10-23T10:02:20;97583.84;;;19.40;67.14
23118;BME280;11728;50.624;6.014;2022-10-23T10:08:33;97578.25;;;19.18;67.82
23118;BME280;11728;50.624;6.014;2022-10-23T10:25:33;97555.97;;;19.30;68.33
23118;BME280;11728;50.624;6.014;2022-10-23T10:36:46;97566.53;;;19.95;66.83
23118;BME280;11728;50.624;6.014;2022-10-23T11:55:30;97503.00;;;22.56;55.67
23118;BME280;11728;50.624;6.014;2022-10-23T12:01:03;97515.25;;;22.16;57.11
23118;BME280;11728;50.624;6.014;2022-10-23T12:06:55;97502.59;;;21.85;58.21
23118;BME280;11728;50.624;6.014;2022-10-23T12:12:31;97495.13;;;21.67;58.07
23118;BME280;11728;50.624;6.014;2022-10-23T12:18:06;97496.69;;;21.59;59.35
23118;BME280;11728;50.624;6.014;2022-10-23T12:35:18;97458.09;;;21.81;58.68
23118;BME280;11728;50.624;6.014;2022-10-23T12:41:07;97443.44;;;21.74;58.76
23118;BME280;11728;50.624;6.014;2022-10-23T12:46:30;97428.25;;;21.95;57.76
23118;BME280;11728;50.624;6.014;2022-10-23T12:52:13;97435.22;;;22.51;56.80
23118;BME280;11728;50.624;6.014;2022-10-23T12:57:42;97398.94;;;22.66;54.82
23118;BME280;11728;50.624;6.014;2022-10-23T13:03:03;97399.06;;;22.44;54.60
23118;BME280;11728;50.624;6.014;2022-10-23T13:08:31;97387.59;;;22.31;54.44
23118;BME280;11728;50.624;6.014;2022-10-23T13:25:38;97347.94;;;22.33;55.50
23118;BME280;11728;50.624;6.014;2022-10-23T13:31:26;97324.53;;;22.13;55.35
23118;BME280;11728;50.624;6.014;2022-10-23T13:42:15;97325.06;;;22.07;57.08
23118;BME280;11728;50.624;6.014;2022-10-23T13:47:35;97342.28;;;22.05;57.01
23118;BME280;11728;50.624;6.014;2022-10-23T13:52:56;97357.63;;;21.93;57.40
23118;BME280;11728;50.624;6.014;2022-10-23T13:58:18;97363.75;;;21.84;58.02
23118;BME280;11728;50.624;6.014;2022-10-23T14:03:38;97406.53;;;21.76;58.59
23118;BME280;11728;50.624;6.014;2022-10-23T14:08:59;97409.59;;;21.61;59.12
23118;BME280;11728;50.624;6.014;2022-10-23T14:14:20;97388.41;;;21.13;62.38
23118;BME280;11728;50.624;6.014;2022-10-23T14:19:41;97404.72;;;20.77;64.55
23118;BME280;11728;50.624;6.014;2022-10-23T14:25:02;97433.66;;;20.61;65.73
23118;BME280;11728;50.624;6.014;2022-10-23T14:30:23;97455.09;;;20.50;66.62
23118;BME280;11728;50.624;6.014;2022-10-23T14:35:44;97455.28;;;20.36;68.00
23118;BME280;11728;50.624;6.014;2022-10-23T14:41:09;97429.06;;;20.16;70.33
23118;BME280;11728;50.624;6.014;2022-10-23T14:46:31;97415.34;;;19.85;73.38
23118;BME280;11728;50.624;6.014;2022-10-23T14:51:52;97406.78;;;19.80;74.73
23118;BME280;11728;50.624;6.014;2022-10-23T14:57:12;97384.25;;;19.83;75.22
23118;BME280;11728;50.624;6.014;2022-10-23T15:02:36;97400.56;;;19.80;75.79
23118;BME280;11728;50.624;6.014;2022-10-23T15:07:57;97406.78;;;19.80;75.89
23118;BME280;11728;50.624;6.014;2022-10-23T15:13:18;97407.88;;;19.78;76.02
23118;BME280;11728;50.624;6.014;2022-10-23T15:18:39;97409.59;;;19.79;76.50
23118;BME280;11728;50.624;6.014;2022-10-23T15:24:00;97416.63;;;19.80;76.76
23118;BME280;11728;50.624;6.014;2022-10-23T15:29:21;97426.31;;;19.70;77.50
23118;BME280;11728;50.624;6.014;2022-10-23T15:34:42;97422.97;;;19.31;81.11
23118;BME280;11728;50.624;6.014;2022-10-23T15:40:03;97425.50;;;19.07;83.61
23118;BME280;11728;50.624;6.014;2022-10-23T15:45:24;97400.38;;;18.97;84.75
23118;BME280;11728;50.624;6.014;2022-10-23T15:50:45;97375.63;;;18.81;85.97
23118;BME280;11728;50.624;6.014;2022-10-23T15:56:06;97344.91;;;18.62;87.36
23118;BME280;11728;50.624;6.014;2022-10-23T16:01:27;97307.91;;;18.56;88.25
23118;BME280;11728;50.624;6.014;2022-10-23T16:06:48;97316.03;;;18.30;89.37
23118;BME280;11728;50.624;6.014;2022-10-23T16:12:08;97285.91;;;18.14;91.13
23118;BME280;11728;50.624;6.014;2022-10-23T16:17:29;97278.97;;;18.11;91.16
23118;BME280;11728;50.624;6.014;2022-10-23T16:22:50;97275.44;;;18.11;88.92
23118;BME280;11728;50.624;6.014;2022-10-23T16:28:11;97292.22;;;18.13;87.14
23118;BME280;11728;50.624;6.014;2022-10-23T16:33:32;97313.91;;;18.08;86.64
23118;BME280;11728;50.624;6.014;2022-10-23T16:38:52;97310.91;;;18.00;85.78
23118;BME280;11728;50.624;6.014;2022-10-23T16:44:21;97310.25;;;17.97;85.18
23118;BME280;11728;50.624;6.014;2022-10-23T16:49:53;97308.53;;;17.96;83.67
23118;BME280;11728;50.624;6.014;2022-10-23T16:55:14;97318.25;;;17.97;83.10
23118;BME280;11728;50.624;6.014;2022-10-23T17:00:34;97319.22;;;17.96;81.81
23118;BME280;11728;50.624;6.014;2022-10-23T17:06:04;97311.84;;;17.87;81.97
23118;BME280;11728;50.624;6.014;2022-10-23T17:11:31;97303.91;;;17.85;81.08
23118;BME280;11728;50.624;6.014;2022-10-23T17:16:52;97300.81;;;17.79;80.78
23118;BME280;11728;50.624;6.014;2022-10-23T17:22:14;97299.50;;;17.72;81.10
23118;BME280;11728;50.624;6.014;2022-10-23T17:27:34;97294.25;;;17.71;80.40
23118;BME280;11728;50.624;6.014;2022-10-23T17:32:55;97309.25;;;17.73;79.85
23118;BME280;11728;50.624;6.014;2022-10-23T17:38:16;97308.81;;;17.79;78.93
23118;BME280;11728;50.624;6.014;2022-10-23T17:43:38;97300.66;;;17.68;79.30
23118;BME280;11728;50.624;6.014;2022-10-23T17:49:01;97310.81;;;17.63;79.72
23118;BME280;11728;50.624;6.014;2022-10-23T17:54:24;97315.38;;;17.61;79.57
23118;BME280;11728;50.624;6.014;2022-10-23T17:59:45;97312.94;;;17.58;79.15
23118;BME280;11728;50.624;6.014;2022-10-23T18:05:07;97330.63;;;17.59;79.17
23118;BME280;11728;50.624;6.014;2022-10-23T18:10:27;97321.00;;;17.57;79.50
23118;BME280;11728;50.624;6.014;2022-10-23T18:15:48;97333.81;;;17.52;79.53
23118;BME280;11728;50.624;6.014;2022-10-23T18:21:11;97320.75;;;17.47;79.13
23118;BME280;11728;50.624;6.014;2022-10-23T18:26:32;97327.06;;;17.46;79.02
23118;BME280;11728;50.624;6.014;2022-10-23T18:31:58;97339.75;;;17.43;79.20
23118;BME280;11728;50.624;6.014;2022-10-23T18:37:19;97336.53;;;17.38;80.31
23118;BME280;11728;50.624;6.014;2022-10-23T18:42:40;97323.25;;;17.36;80.61
23118;BME280;11728;50.624;6.014;2022-10-23T18:48:01;97317.59;;;17.28;81.29
23118;BME280;11728;50.624;6.014;2022-10-23T18:53:22;97315.06;;;17.25;80.99
23118;BME280;11728;50.624;6.014;2022-10-23T18:58:43;97306.53;;;17.20;81.24
23118;BME280;11728;50.624;6.014;2022-10-23T19:04:04;97316.72;;;17.14;81.85
23118;BME280;11728;50.624;6.014;2022-10-23T19:09:24;97327.38;;;17.14;81.73
23118;BME280;11728;50.624;6.014;2022-10-23T19:14:45;97348.47;;;17.04;82.25
23118;BME280;11728;50.624;6.014;2022-10-23T19:20:12;97331.59;;;17.04;82.57
23118;BME280;11728;50.624;6.014;2022-10-23T19:25:35;97315.66;;;17.16;81.53
23118;BME280;11728;50.624;6.014;2022-10-23T19:30:56;97330.72;;;17.31;80.64
23118;BME280;11728;50.624;6.014;2022-10-23T19:36:17;97345.34;;;17.52;79.52
23118;BME280;11728;50.624;6.014;2022-10-23T19:41:38;97364.56;;;17.71;78.60
23118;BME280;11728;50.624;6.014;2022-10-23T19:46:58;97400.19;;;17.84;77.92
23118;BME280;11728;50.624;6.014;2022-10-23T19:52:19;97405.13;;;17.90;78.29
23118;BME280;11728;50.624;6.014;2022-10-23T19:57:42;97423.81;;;17.90;78.45
23118;BME280;11728;50.624;6.014;2022-10-23T20:03:03;97404.03;;;17.80;79.54
23118;BME280;11728;50.624;6.014;2022-10-23T20:08:24;97412.63;;;17.71;80.37
23118;BME280;11728;50.624;6.014;2022-10-23T20:13:45;97416.25;;;17.70;80.54
23118;BME280;11728;50.624;6.014;2022-10-23T20:19:08;97417.78;;;17.60;80.96
23118;BME280;11728;50.624;6.014;2022-10-23T20:24:30;97415.44;;;17.42;81.53
23118;BME280;11728;50.624;6.014;2022-10-23T20:29:50;97417.44;;;17.38;82.27
23118;BME280;11728;50.624;6.014;2022-10-23T20:35:11;97424.59;;;17.24;83.30
23118;BME280;11728;50.624;6.014;2022-10-23T20:40:32;97420.13;;;17.10;84.08
23118;BME280;11728;50.624;6.014;2022-10-23T20:45:53;97423.34;;;17.01;84.86
23118;BME280;11728;50.624;6.014;2022-10-23T20:51:16;97414.28;;;16.90;85.84
23118;BME280;11728;50.624;6.014;2022-10-23T20:56:38;97420.88;;;16.85;86.64
23118;BME280;11728;50.624;6.014;2022-10-23T21:01:59;97423.72;;;16.82;86.65
23118;BME280;11728;50.624;6.014;2022-10-23T21:07:19;97427.72;;;16.75;86.86
23118;BME280;11728;50.624;6.014;2022-10-23T21:12:40;97423.16;;;16.77;86.95
23118;BME280;11728;50.624;6.014;2022-10-23T21:18:01;97423.06;;;16.78;86.66
23118;BME280;11728;50.624;6.014;2022-10-23T21:23:22;97438.00;;;16.81;86.29
23118;BME280;11728;50.624;6.014;2022-10-23T21:28:44;97438.16;;;16.78;86.09
23118;BME280;11728;50.624;6.014;2022-10-23T21:34:05;97444.66;;;16.74;86.28
23118;BME280;11728;50.624;6.014;2022-10-23T21:39:26;97441.63;;;16.80;85.62
23118;BME280;11728;50.624;6.014;2022-10-23T21:44:48;97437.22;;;16.79;85.20
23118;BME280;11728;50.624;6.014;2022-10-23T22:10:56;97414.38;;;17.02;83.82
23118;BME280;11728;50.624;6.014;2022-10-23T22:16:17;97424.56;;;16.96;83.65
23118;BME280;11728;50.624;6.014;2022-10-23T22:21:39;97410.22;;;16.98;83.44
23118;BME280;11728;50.624;6.014;2022-10-23T22:27:00;97425.91;;;16.89;83.75
23118;BME280;11728;50.624;6.014;2022-10-23T22:32:20;97421.06;;;16.82;83.92
23118;BME280;11728;50.624;6.014;2022-10-23T22:37:41;97429.91;;;16.82;83.73
23118;BME280;11728;50.624;6.014;2022-10-23T22:43:02;97418.94;;;16.87;83.00
23118;BME280;11728;50.624;6.014;2022-10-23T22:48:23;97409.81;;;16.91;82.51
23118;BME280;11728;50.624;6.014;2022-10-23T22:53:44;97405.81;;;16.97;81.93
23118;BME280;11728;50.624;6.014;2022-10-23T22:59:05;97417.81;;;16.91;82.07
23118;BME280;11728;50.624;6.014;2022-10-23T23:04:26;97408.28;;;16.87;82.09
23118;BME280;11728;50.624;6.014;2022-10-23T23:09:47;97406.09;;;16.93;81.48
23118;BME280;11728;50.624;6.014;2022-10-23T23:15:08;97405.22;;;16.92;81.61
23118;BME280;11728;50.624;6.014;2022-10-23T23:20:29;97398.00;;;16.94;81.71
23118;BME280;11728;50.624;6.014;2022-10-23T23:25:50;97403.34;;;16.94;81.72
23118;BME280;11728;50.624;6.014;2022-10-23T23:31:24;97392.94;;;17.18;79.58
23118;BME280;11728;50.624;6.014;2022-10-23T23:36:45;97382.38;;;17.30;78.15
23118;BME280;11728;50.624;6.014;2022-10-23T23:42:06;97390.97;;;17.35;77.13
23118;BME280;11728;50.624;6.014;2022-10-23T23:47:27;97393.06;;;17.30;76.94
23118;BME280;11728;50.624;6.014;2022-10-23T23:52:48;97400.88;;;17.33;75.86
23118;BME280;11728;50.624;6.014;2022-10-23T23:58:10;97387.97;;;17.26;75.91
